Latest Weather Observations for Ceduna

IDS60801

Issued at 2:35 pm CDT Friday 31 October 2014 (issued every 30 minutes, with the page automatically refreshed every 10 minutes)

About weather observations | Map of weather stations | Latest weather observations for SA | Other Formats
Station Details ID: 018012 Name: CEDUNA AMO Lat: -32.13 Lon: 133.70 Height: 15.3 m
Data from the previous 72 hours. | See also: Recent months at Ceduna
Date/Time
CDT
Temp
°C
App
Temp
°C
Dew
Point
Rel
Hum
%
Delta-T
°C
Wind Press
QNH
hPa
Press
MSL
hPa
Rain
since 9 am
mm
Dir
 
Spd
km/h
Gust
km/h
Spd
kts
Gust
kts
31/02:30pm 23.7 19.1 15.0 58 5.2 S 33 44 18 24 1004.4 1004.3 0.0
31/02:00pm 23.5 18.2 13.2 52 6.0 S 33 44 18 24 1003.8 1003.7 0.0
31/01:30pm 25.2 20.1 11.9 43 7.6 S 30 43 16 23 1004.3 1004.2 0.0
31/01:00pm 25.0 20.3 10.5 40 8.1 S 26 33 14 18 1004.6 1004.5 0.0
31/12:30pm 25.0 19.7 9.8 38 8.4 S 28 35 15 19 1004.6 1004.5 0.0
31/12:00pm 24.2 19.8 13.0 49 6.5 SSW 28 35 15 19 1004.9 1004.8 0.0
31/11:30am 28.5 22.6 7.3 26 11.4 SSW 28 39 15 21 1004.9 1004.8 0.0
31/11:26am 27.2 21.4 8.0 29 10.4 SSW 28 39 15 21 1004.9 1004.8 0.0
31/11:00am 29.0 24.8 3.9 20 12.7 WNW 15 19 8 10 1004.8 1004.7 0.0
31/10:30am 27.6 25.0 6.3 26 11.2 WNW 9 13 5 7 1004.8 1004.7 0.0
31/10:00am 26.3 23.1 6.7 28 10.3 NNW 13 19 7 10 1004.9 1004.8 0.0
31/09:30am 24.7 22.0 9.1 37 8.5 NNW 13 20 7 11 1005.1 1005.0 0.0
31/09:00am 22.0 19.8 10.8 49 6.2 N 13 17 7 9 1005.0 1004.9 0.0
31/08:30am 20.7 20.0 11.5 55 5.1 NNW 6 9 3 5 1004.9 1004.8 0.0
31/08:00am 20.1 19.4 11.4 57 4.8 N 6 9 3 5 1005.0 1004.9 0.0
31/07:30am 19.4 18.8 11.8 61 4.2 NNW 6 11 3 6 1005.0 1004.9 0.0
31/07:00am 20.0 19.4 12.4 61 4.3 W 7 13 4 7 1005.0 1004.9 0.0
31/06:30am 20.3 17.4 11.0 55 5.1 NW 17 22 9 12 1005.5 1005.4 0.0
31/06:00am 20.5 16.0 9.9 50 5.7 W 24 35 13 19 1005.4 1005.3 0.0
31/05:45am 18.5 12.7 11.4 63 3.9 W 33 44 18 24 1004.8 1004.7 0.0
31/05:30am 15.7 13.6 6.8 55 4.4 WSW 7 13 4 7 1003.8 1003.7 0.0
31/05:00am 15.5 13.5 7.2 57 4.1 NNE 7 9 4 5 1003.7 1003.6 0.0
31/04:30am 16.5 13.9 7.6 55 4.5 NNE 11 15 6 8 1003.8 1003.7 0.0
31/04:00am 17.9 16.1 9.3 57 4.5 NE 9 11 5 6 1003.8 1003.7 0.0
31/03:30am 19.0 16.3 8.9 52 5.3 E 13 17 7 9 1004.3 1004.2 0.0
31/03:00am 19.5 18.2 11.1 58 4.6 NE 9 17 5 9 1005.0 1004.9 0.0
31/02:30am 19.8 19.1 11.3 58 4.7 W 6 11 3 6 1006.0 1005.9 0.0
31/02:00am 21.4 18.9 10.9 51 5.8 SSE 15 20 8 11 1006.7 1006.7 0.0
31/01:30am 21.6 19.0 10.7 50 6.0 S 15 17 8 9 1007.7 1007.7 0.0
31/01:00am 21.8 18.4 10.5 48 6.2 SSE 19 22 10 12 1007.9 1007.9 0.0
31/12:30am 22.2 19.1 11.5 50 6.0 S 19 22 10 12 1008.1 1008.1 0.0
31/12:00am 22.0 19.7 9.1 43 6.9 SE 11 13 6 7 1007.8 1007.8 0.0
 
Date/Time
CDT
Temp
°C
App
Temp
°C
Dew
Point
Rel
Hum
%
Delta-T
°C
Wind Press
QNH
hPa
Press
MSL
hPa
Rain
since 9 am
mm
Dir
 
Spd
km/h
Gust
km/h
Spd
kts
Gust
kts
30/11:30pm 23.2 20.0 7.0 35 8.4 SE 13 17 7 9 1007.8 1007.8 0.0
30/11:00pm 22.6 19.6 7.7 38 7.8 SE 13 19 7 10 1007.8 1007.8 0.0
30/10:30pm 23.3 21.1 10.7 45 7.0 SE 13 15 7 8 1008.1 1008.1 0.0
30/10:00pm 23.2 21.9 11.2 46 6.7 SSE 9 11 5 6 1008.7 1008.7 0.0
30/09:30pm 24.6 21.2 4.0 26 10.2 S 11 13 6 7 1008.6 1008.6 0.0
30/09:00pm 25.4 21.6 3.9 25 10.7 SSE 13 17 7 9 1008.3 1008.3 0.0
30/08:30pm 26.8 22.9 3.5 22 11.6 SSE 13 17 7 9 1008.2 1008.2 0.0
30/08:00pm 28.4 24.2 1.8 18 13.0 SSE 13 17 7 9 1008.1 1008.1 0.0
30/07:30pm 30.5 25.7 -2.6 11 15.2 S 13 15 7 8 1007.8 1007.8 0.0
30/07:00pm 31.9 26.5 -4.7 9 16.4 SSE 15 17 8 9 1007.8 1007.8 0.0
30/06:30pm 32.6 26.9 -4.1 9 16.7 SSE 17 19 9 10 1007.8 1007.8 0.0
30/05:30pm 32.5 26.7 -5.0 8 16.8 SSE 17 20 9 11 1008.2 1008.2 0.0
30/05:00pm 32.2 26.2 -2.7 10 16.2 SSE 19 22 10 12 1008.6 1008.6 0.0
30/04:30pm 31.0 25.6 1.4 15 14.6 S 19 22 10 12 1008.9 1008.9 0.0
30/04:00pm 30.0 24.7 1.9 16 13.9 SSE 19 24 10 13 1009.3 1009.3 0.0
30/03:30pm 31.2 25.6 0.2 13 15.0 S 19 22 10 12 1009.7 1009.7 0.0
30/03:00pm 33.9 28.4 -5.7 7 17.7 SW 15 20 8 11 1010.1 1010.1 0.0
30/02:30pm 34.0 28.5 -5.3 8 17.7 SSW 15 20 8 11 1010.3 1010.3 0.0
30/02:00pm 33.6 29.3 -4.9 8 17.4 N 9 17 5 9 1010.8 1010.8 0.0
30/01:30pm 32.5 27.7 -6.5 8 17.0 N 11 20 6 11 1011.3 1011.3 0.0
30/01:00pm 32.6 26.5 -7.5 7 17.2 NNE 17 26 9 14 1011.8 1011.8 0.0
30/12:30pm 31.9 25.8 -7.5 7 16.8 NNE 17 24 9 13 1012.4 1012.4 0.0
30/12:00pm 31.1 24.9 -8.6 7 16.5 NE 17 26 9 14 1012.9 1012.9 0.0
30/11:30am 31.6 24.5 -13.2 5 17.3 NE 20 28 11 15 1013.4 1013.4 0.0
30/11:00am 30.2 23.2 -7.3 8 15.8 NE 22 30 12 16 1013.6 1013.6 0.0
30/10:30am 28.4 20.7 -11.0 7 15.3 ENE 24 32 13 17 1014.0 1014.0 0.0
30/10:00am 25.9 18.6 -5.8 12 13.2 ENE 24 32 13 17 1014.2 1014.2 0.0
30/09:30am 22.9 18.8 4.1 29 9.2 NE 15 20 8 11 1014.8 1014.8 0.0
30/09:00am 19.4 17.2 7.9 47 5.9 NE 9 13 5 7 1015.2 1015.2 0.0
30/08:30am 16.0 13.8 9.2 64 3.5 ENE 11 15 6 8 1015.5 1015.5 -
30/08:00am 12.6 11.0 10.3 86 1.2 ENE 9 9 5 5 1015.5 1015.5 -
30/07:30am 10.4 9.0 9.6 95 0.4 SE 7 11 4 6 1015.4 1015.4 -
30/07:00am 7.5 5.1 6.8 95 0.3 SE 9 9 5 5 1015.0 1015.0 -
30/06:30am 6.3 4.0 5.6 95 0.3 SE 7 9 4 5 1014.6 1014.6 -
30/06:00am 7.4 5.8 6.5 94 0.4 NNE 4 7 2 4 1014.6 1014.6 -
30/05:30am 8.2 6.2 7.3 94 0.4 NNE 7 9 4 5 1014.5 1014.5 -
30/05:00am 8.7 7.0 7.6 93 0.5 NNE 6 7 3 4 1014.7 1014.7 -
30/04:30am 9.4 6.9 8.2 92 0.6 ENE 11 13 6 7 1014.7 1014.7 -
30/04:00am 9.6 7.5 8.1 90 0.7 SE 9 9 5 5 1015.1 1015.1 -
30/03:30am 10.1 8.5 8.9 92 0.6 ESE 7 9 4 5 1015.3 1015.3 -
30/03:00am 11.1 9.3 9.5 90 0.8 E 9 11 5 6 1015.6 1015.6 0.0
30/02:30am 11.6 9.1 9.8 89 0.9 SE 13 15 7 8 1015.5 1015.5 -
30/02:00am 12.4 10.9 10.5 88 1.0 ESE 9 9 5 5 1015.9 1015.9 -
30/01:30am 13.3 11.5 11.0 86 1.2 SE 11 13 6 7 1016.1 1016.1 -
30/01:00am 13.9 12.7 11.5 85 1.3 ESE 9 15 5 8 1016.2 1016.2 -
30/12:30am 15.3 13.5 12.2 82 1.7 SE 13 19 7 10 1016.4 1016.4 -
30/12:00am 16.0 14.3 12.4 79 2.0 ESE 13 22 7 12 1016.5 1016.5 -
 
Date/Time
CDT
Temp
°C
App
Temp
°C
Dew
Point
Rel
Hum
%
Delta-T
°C
Wind Press
QNH
hPa
Press
MSL
hPa
Rain
since 9 am
mm
Dir
 
Spd
km/h
Gust
km/h
Spd
kts
Gust
kts
29/11:30pm 16.3 14.9 12.3 77 2.2 SE 11 17 6 9 1016.7 1016.7 -
29/11:00pm 16.5 13.6 12.3 76 2.3 SSE 19 26 10 14 1017.1 1017.1 -
29/10:30pm 16.5 13.4 11.7 73 2.6 SSE 19 24 10 13 1017.0 1017.0 -
29/10:00pm 17.0 14.1 12.3 74 2.6 SSE 19 28 10 15 1017.1 1017.1 -
29/09:30pm 17.4 14.6 11.5 68 3.2 S 17 28 9 15 1017.0 1017.0 -
29/09:00pm 17.8 15.8 11.6 67 3.4 SSE 13 19 7 10 1016.6 1016.6 0.0
29/08:30pm 18.6 15.6 10.6 59 4.3 SSE 17 24 9 13 1016.3 1016.3 -
29/08:00pm 18.3 14.3 11.7 65 3.6 S 24 30 13 16 1015.9 1015.9 -
29/07:30pm 18.3 15.0 12.8 70 3.1 SSE 22 32 12 17 1016.1 1016.1 -
29/07:00pm 18.9 14.6 13.2 69 3.2 S 28 35 15 19 1015.9 1015.9 -
29/06:30pm 20.0 15.9 12.7 63 4.1 S 26 33 14 18 1015.6 1015.6 -
29/06:00pm 21.2 16.6 11.2 53 5.5 S 26 32 14 17 1015.5 1015.5 -
29/05:30pm 20.8 16.1 12.0 57 4.9 S 28 35 15 19 1015.4 1015.4 -
29/05:00pm 23.1 18.4 10.6 45 6.9 S 26 32 14 17 1015.4 1015.4 -
29/04:30pm 23.1 19.0 11.5 48 6.5 S 24 30 13 16 1015.5 1015.5 -
29/04:00pm 22.6 18.6 11.9 50 6.0 S 24 28 13 15 1015.6 1015.6 -
29/03:30pm 23.6 19.3 12.2 48 6.5 SSW 26 32 14 17 1015.9 1015.9 -
29/03:00pm 24.3 20.4 12.0 46 7.0 S 24 30 13 16 1015.9 1015.9 -
29/02:30pm 26.4 22.8 10.7 37 8.8 S 20 26 11 14 1015.9 1015.9 -
29/02:00pm 28.9 25.3 8.2 27 11.3 SW 17 22 9 12 1016.2 1016.2 -
29/01:30pm 29.4 26.3 7.3 25 11.9 SSW 13 20 7 11 1016.3 1016.3 -
29/01:00pm 28.4 24.5 3.5 20 12.5 WSW 13 20 7 11 1016.8 1016.8 -
29/12:30pm 28.1 24.2 5.2 23 11.8 WSW 15 20 8 11 1017.2 1017.2 -
29/12:00pm 27.8 24.5 6.5 26 11.2 WSW 13 17 7 9 1017.6 1017.6 -
29/11:30am 27.5 24.0 3.7 21 11.9 N 11 19 6 10 1017.9 1017.9 0.0
29/11:00am 25.3 21.6 4.5 26 10.4 N 13 20 7 11 1018.4 1018.4 0.0
29/10:30am 24.5 21.0 5.3 29 9.7 N 13 20 7 11 1018.5 1018.5 0.0
29/10:00am 22.0 19.3 7.2 38 7.6 NNE 11 17 6 9 1018.7 1018.7 0.0
29/09:30am 19.7 16.2 7.3 44 6.3 NE 15 19 8 10 1018.8 1018.8 0.0
29/09:00am 17.6 14.6 7.9 53 4.9 NE 13 17 7 9 1019.1 1019.1 0.0
29/08:30am 14.8 11.2 8.2 64 3.3 ENE 17 20 9 11 1019.1 1019.1 0.0
29/08:00am 12.0 8.7 8.1 77 1.9 ENE 15 17 8 9 1019.4 1019.4 0.0
29/07:30am 9.1 6.8 7.4 89 0.8 ENE 9 13 5 7 1019.1 1019.1 0.0
29/07:00am 7.3 4.6 5.7 89 0.7 E 9 11 5 6 1019.0 1019.0 0.0
29/06:30am 6.6 3.3 4.8 88 0.8 E 11 13 6 7 1018.8 1018.8 0.0
29/06:00am 6.3 4.0 4.7 89 0.7 E 6 7 3 4 1019.0 1019.0 0.0
29/05:30am 6.7 4.0 5.6 93 0.5 E 9 11 5 6 1019.0 1019.0 0.0
29/05:00am 7.3 5.0 5.7 89 0.7 E 7 7 4 4 1019.0 1019.0 0.0
29/04:30am 8.5 6.4 6.8 89 0.8 E 7 9 4 5 1019.0 1019.0 0.0
29/04:00am 9.5 6.9 7.6 88 0.9 E 11 13 6 7 1019.0 1019.0 0.0
29/03:30am 9.5 7.2 7.6 88 0.9 E 9 11 5 6 1019.1 1019.1 0.0
29/03:00am 9.5 6.8 7.4 87 1.0 E 11 15 6 8 1019.2 1019.2 0.0
29/02:30am 9.1 6.0 7.2 88 0.9 ESE 13 15 7 8 1019.4 1019.4 0.0
29/02:00am 8.9 6.2 7.2 89 0.8 ESE 11 13 6 7 1019.6 1019.6 0.0
29/01:30am 9.5 7.2 7.4 87 1.0 ESE 9 11 5 6 1020.0 1020.0 0.0
29/01:00am 10.9 8.1 8.4 84 1.2 E 13 15 7 8 1020.2 1020.2 0.0
29/12:30am 10.8 8.4 8.6 86 1.1 SE 11 13 6 7 1020.3 1020.3 0.0
29/12:00am 10.3 7.3 7.6 83 1.3 ESE 13 15 7 8 1020.3 1020.3 0.0
 
Date/Time
CDT
Temp
°C
App
Temp
°C
Dew
Point
Rel
Hum
%
Delta-T
°C
Wind Press
QNH
hPa
Press
MSL
hPa
Rain
since 9 am
mm
Dir
 
Spd
km/h
Gust
km/h
Spd
kts
Gust
kts
28/11:30pm 10.9 8.7 8.0 82 1.4 SE 9 11 5 6 1020.4 1020.4 0.0
28/11:00pm 12.5 10.6 8.9 79 1.8 SE 9 11 5 6 1020.3 1020.3 0.0
28/10:30pm 14.1 11.1 9.4 73 2.4 SSE 15 17 8 9 1020.4 1020.4 0.0
28/10:00pm 14.6 11.2 9.3 70 2.7 SSE 17 20 9 11 1020.3 1020.3 0.0
28/09:30pm 14.3 11.7 9.4 72 2.5 SSE 13 15 7 8 1020.2 1020.2 0.0
28/09:00pm 15.5 13.0 9.7 68 3.0 S 13 17 7 9 1020.1 1020.1 0.0
28/08:30pm 15.4 12.9 9.6 68 3.0 S 13 17 7 9 1020.0 1020.0 0.0
28/08:00pm 16.3 12.9 9.3 63 3.6 S 17 20 9 11 1019.9 1019.9 0.0
28/07:30pm 17.1 13.1 9.0 59 4.2 S 20 26 11 14 1019.9 1019.9 0.0
28/07:00pm 17.8 13.8 8.9 56 4.6 S 20 26 11 14 1019.8 1019.8 0.0
28/06:30pm 18.5 14.4 8.6 52 5.1 S 20 28 11 15 1019.7 1019.7 0.0
28/06:00pm 19.3 15.1 8.2 48 5.7 S 20 26 11 14 1019.9 1019.9 0.0
28/05:30pm 19.4 15.2 8.1 48 5.8 SSW 20 28 11 15 1019.9 1019.9 0.0
28/05:00pm 19.6 15.4 8.2 47 5.9 SSW 20 26 11 14 1020.0 1020.0 0.0
28/04:30pm 19.5 14.9 8.3 48 5.8 SSW 22 30 12 16 1020.2 1020.2 0.0
28/04:00pm 20.6 16.0 8.3 45 6.4 SSW 22 32 12 17 1020.3 1020.3 0.0
28/03:30pm 20.1 15.5 8.3 46 6.1 SSW 22 32 12 17 1020.5 1020.5 0.0
28/03:00pm 20.8 15.9 8.6 45 6.4 SSW 24 32 13 17 1020.6 1020.6 0.0

Other Formats:

Comma delimited format used in spreadsheet applications
http://www.bom.gov.au/fwo/IDS60801/IDS60801.94653.axf

JavaScript Object Notation format (JSON) in row-major order
http://www.bom.gov.au/fwo/IDS60801/IDS60801.94653.json